sensor_id;sensor_type;location;lat;lon;timestamp;P1;durP1;ratioP1;P2;durP2;ratioP2
74100;SDS011;62462;52.530;21.682;2023-06-22T00:00:42;13.75;;;11.80;;
74100;SDS011;62462;52.530;21.682;2023-06-22T00:03:09;13.82;;;11.85;;
74100;SDS011;62462;52.530;21.682;2023-06-22T00:05:35;14.48;;;12.20;;
74100;SDS011;62462;52.530;21.682;2023-06-22T00:08:04;13.30;;;11.80;;
74100;SDS011;62462;52.530;21.682;2023-06-22T00:10:30;14.00;;;11.65;;
74100;SDS011;62462;52.530;21.682;2023-06-22T00:12:56;14.88;;;12.00;;
74100;SDS011;62462;52.530;21.682;2023-06-22T00:15:22;12.65;;;11.35;;
74100;SDS011;62462;52.530;21.682;2023-06-22T00:17:48;15.65;;;11.73;;
74100;SDS011;62462;52.530;21.682;2023-06-22T00:20:14;14.73;;;12.00;;
74100;SDS011;62462;52.530;21.682;2023-06-22T00:22:41;13.70;;;12.27;;
74100;SDS011;62462;52.530;21.682;2023-06-22T00:25:08;13.48;;;11.23;;
74100;SDS011;62462;52.530;21.682;2023-06-22T00:27:34;12.45;;;11.23;;
74100;SDS011;62462;52.530;21.682;2023-06-22T00:30:00;12.98;;;11.50;;
74100;SDS011;62462;52.530;21.682;2023-06-22T00:32:26;13.32;;;11.88;;
74100;SDS011;62462;52.530;21.682;2023-06-22T00:34:51;14.68;;;12.32;;
74100;SDS011;62462;52.530;21.682;2023-06-22T00:37:17;15.60;;;12.20;;
74100;SDS011;62462;52.530;21.682;2023-06-22T00:39:43;13.98;;;12.57;;
74100;SDS011;62462;52.530;21.682;2023-06-22T00:42:09;15.55;;;13.30;;
74100;SDS011;62462;52.530;21.682;2023-06-22T00:44:35;17.63;;;13.15;;
74100;SDS011;62462;52.530;21.682;2023-06-22T00:47:02;14.77;;;12.98;;
74100;SDS011;62462;52.530;21.682;2023-06-22T00:49:28;14.23;;;12.73;;
74100;SDS011;62462;52.530;21.682;2023-06-22T00:51:54;18.17;;;13.27;;
74100;SDS011;62462;52.530;21.682;2023-06-22T00:54:22;15.40;;;13.25;;
74100;SDS011;62462;52.530;21.682;2023-06-22T00:56:50;16.88;;;13.20;;
74100;SDS011;62462;52.530;21.682;2023-06-22T00:59:20;17.30;;;13.85;;
74100;SDS011;62462;52.530;21.682;2023-06-22T01:01:46;14.82;;;13.20;;
74100;SDS011;62462;52.530;21.682;2023-06-22T01:04:12;14.52;;;13.00;;
74100;SDS011;62462;52.530;21.682;2023-06-22T01:06:38;15.15;;;12.95;;
74100;SDS011;62462;52.530;21.682;2023-06-22T01:09:15;15.43;;;13.60;;
74100;SDS011;62462;52.530;21.682;2023-06-22T01:11:50;14.23;;;12.73;;
74100;SDS011;62462;52.530;21.682;2023-06-22T01:14:28;15.43;;;13.50;;
74100;SDS011;62462;52.530;21.682;2023-06-22T01:16:57;16.93;;;13.93;;
74100;SDS011;62462;52.530;21.682;2023-06-22T01:21:51;13.75;;;12.32;;
74100;SDS011;62462;52.530;21.682;2023-06-22T01:24:26;13.77;;;11.30;;
74100;SDS011;62462;52.530;21.682;2023-06-22T01:29:35;12.82;;;11.52;;
74100;SDS011;62462;52.530;21.682;2023-06-22T01:32:03;14.98;;;12.63;;
74100;SDS011;62462;52.530;21.682;2023-06-22T01:34:31;15.52;;;12.95;;
74100;SDS011;62462;52.530;21.682;2023-06-22T01:36:58;14.93;;;13.38;;
74100;SDS011;62462;52.530;21.682;2023-06-22T01:39:26;16.08;;;13.27;;
74100;SDS011;62462;52.530;21.682;2023-06-22T01:41:52;13.63;;;12.23;;
74100;SDS011;62462;52.530;21.682;2023-06-22T01:44:19;15.30;;;13.70;;
74100;SDS011;62462;52.530;21.682;2023-06-22T01:46:46;16.92;;;14.00;;
74100;SDS011;62462;52.530;21.682;2023-06-22T01:49:14;16.23;;;14.07;;
74100;SDS011;62462;52.530;21.682;2023-06-22T01:51:40;15.88;;;14.02;;
74100;SDS011;62462;52.530;21.682;2023-06-22T01:54:06;16.35;;;14.23;;
74100;SDS011;62462;52.530;21.682;2023-06-22T01:56:33;15.82;;;13.95;;
74100;SDS011;62462;52.530;21.682;2023-06-22T02:01:50;15.05;;;13.10;;
74100;SDS011;62462;52.530;21.682;2023-06-22T02:04:41;16.63;;;14.07;;
74100;SDS011;62462;52.530;21.682;2023-06-22T02:07:13;14.13;;;12.60;;
74100;SDS011;62462;52.530;21.682;2023-06-22T02:09:45;13.57;;;11.60;;
74100;SDS011;62462;52.530;21.682;2023-06-22T02:12:17;14.73;;;12.40;;
74100;SDS011;62462;52.530;21.682;2023-06-22T02:14:46;13.15;;;11.70;;
74100;SDS011;62462;52.530;21.682;2023-06-22T02:17:12;16.40;;;12.35;;
74100;SDS011;62462;52.530;21.682;2023-06-22T02:19:42;14.27;;;12.88;;
74100;SDS011;62462;52.530;21.682;2023-06-22T02:22:08;15.02;;;13.50;;
74100;SDS011;62462;52.530;21.682;2023-06-22T02:24:34;15.57;;;13.63;;
74100;SDS011;62462;52.530;21.682;2023-06-22T02:27:00;14.95;;;13.45;;
74100;SDS011;62462;52.530;21.682;2023-06-22T02:29:26;16.40;;;13.77;;
74100;SDS011;62462;52.530;21.682;2023-06-22T02:31:52;15.45;;;13.05;;
74100;SDS011;62462;52.530;21.682;2023-06-22T02:34:19;14.25;;;12.75;;
74100;SDS011;62462;52.530;21.682;2023-06-22T02:36:48;15.43;;;12.98;;
74100;SDS011;62462;52.530;21.682;2023-06-22T02:39:20;15.60;;;12.88;;
74100;SDS011;62462;52.530;21.682;2023-06-22T02:41:51;14.77;;;12.95;;
74100;SDS011;62462;52.530;21.682;2023-06-22T02:44:18;15.90;;;13.15;;
74100;SDS011;62462;52.530;21.682;2023-06-22T02:46:44;17.13;;;14.23;;
74100;SDS011;62462;52.530;21.682;2023-06-22T02:49:10;19.35;;;13.63;;
74100;SDS011;62462;52.530;21.682;2023-06-22T02:51:38;18.38;;;14.25;;
74100;SDS011;62462;52.530;21.682;2023-06-22T02:54:05;16.70;;;13.90;;
74100;SDS011;62462;52.530;21.682;2023-06-22T02:56:31;17.73;;;14.80;;
74100;SDS011;62462;52.530;21.682;2023-06-22T02:58:57;17.08;;;13.25;;
74100;SDS011;62462;52.530;21.682;2023-06-22T03:01:29;17.15;;;14.55;;
74100;SDS011;62462;52.530;21.682;2023-06-22T03:03:56;16.75;;;14.88;;
74100;SDS011;62462;52.530;21.682;2023-06-22T03:06:22;18.17;;;15.90;;
74100;SDS011;62462;52.530;21.682;2023-06-22T03:08:48;17.65;;;15.85;;
74100;SDS011;62462;52.530;21.682;2023-06-22T03:11:15;18.95;;;15.02;;
74100;SDS011;62462;52.530;21.682;2023-06-22T03:13:40;17.80;;;15.70;;
74100;SDS011;62462;52.530;21.682;2023-06-22T03:16:06;18.23;;;16.23;;
74100;SDS011;62462;52.530;21.682;2023-06-22T03:18:32;17.63;;;15.25;;
74100;SDS011;62462;52.530;21.682;2023-06-22T03:20:59;17.38;;;15.50;;
74100;SDS011;62462;52.530;21.682;2023-06-22T03:23:27;19.50;;;15.57;;
74100;SDS011;62462;52.530;21.682;2023-06-22T03:25:53;18.08;;;15.80;;
74100;SDS011;62462;52.530;21.682;2023-06-22T03:28:20;18.83;;;15.43;;
74100;SDS011;62462;52.530;21.682;2023-06-22T03:30:46;20.48;;;16.35;;
74100;SDS011;62462;52.530;21.682;2023-06-22T03:33:12;17.05;;;14.20;;
74100;SDS011;62462;52.530;21.682;2023-06-22T03:35:38;17.33;;;15.45;;
74100;SDS011;62462;52.530;21.682;2023-06-22T03:38:04;17.30;;;15.25;;
74100;SDS011;62462;52.530;21.682;2023-06-22T03:40:29;20.38;;;16.77;;
74100;SDS011;62462;52.530;21.682;2023-06-22T03:42:55;24.88;;;17.95;;
74100;SDS011;62462;52.530;21.682;2023-06-22T03:45:21;58.53;;;25.25;;
74100;SDS011;62462;52.530;21.682;2023-06-22T03:47:47;64.95;;;28.65;;
74100;SDS011;62462;52.530;21.682;2023-06-22T03:50:12;53.88;;;26.92;;
74100;SDS011;62462;52.530;21.682;2023-06-22T03:52:39;53.70;;;25.90;;
74100;SDS011;62462;52.530;21.682;2023-06-22T03:55:05;31.23;;;20.67;;
74100;SDS011;62462;52.530;21.682;2023-06-22T03:57:32;23.38;;;18.17;;
74100;SDS011;62462;52.530;21.682;2023-06-22T03:59:58;26.00;;;19.50;;
74100;SDS011;62462;52.530;21.682;2023-06-22T04:02:24;27.88;;;19.40;;
74100;SDS011;62462;52.530;21.682;2023-06-22T04:04:50;26.73;;;19.33;;
74100;SDS011;62462;52.530;21.682;2023-06-22T04:07:16;28.48;;;20.75;;
74100;SDS011;62462;52.530;21.682;2023-06-22T04:09:43;35.22;;;23.65;;
74100;SDS011;62462;52.530;21.682;2023-06-22T04:12:08;27.52;;;20.92;;
74100;SDS011;62462;52.530;21.682;2023-06-22T04:14:34;25.85;;;19.38;;
74100;SDS011;62462;52.530;21.682;2023-06-22T04:17:00;26.50;;;19.40;;
74100;SDS011;62462;52.530;21.682;2023-06-22T04:19:26;21.40;;;18.67;;
74100;SDS011;62462;52.530;21.682;2023-06-22T04:21:52;22.33;;;19.92;;
74100;SDS011;62462;52.530;21.682;2023-06-22T04:24:18;23.42;;;20.92;;
74100;SDS011;62462;52.530;21.682;2023-06-22T04:26:43;31.38;;;24.70;;
74100;SDS011;62462;52.530;21.682;2023-06-22T04:29:10;26.95;;;22.63;;
74100;SDS011;62462;52.530;21.682;2023-06-22T04:31:36;26.88;;;21.67;;
74100;SDS011;62462;52.530;21.682;2023-06-22T04:34:03;33.53;;;25.67;;
74100;SDS011;62462;52.530;21.682;2023-06-22T04:36:38;28.35;;;23.88;;
74100;SDS011;62462;52.530;21.682;2023-06-22T04:39:06;28.08;;;23.70;;
74100;SDS011;62462;52.530;21.682;2023-06-22T04:41:34;31.17;;;25.60;;
74100;SDS011;62462;52.530;21.682;2023-06-22T04:46:39;27.17;;;23.92;;
74100;SDS011;62462;52.530;21.682;2023-06-22T04:49:08;25.67;;;22.98;;
74100;SDS011;62462;52.530;21.682;2023-06-22T04:51:41;24.33;;;21.75;;
74100;SDS011;62462;52.530;21.682;2023-06-22T04:54:07;32.38;;;27.75;;
74100;SDS011;62462;52.530;21.682;2023-06-22T04:56:34;32.47;;;27.27;;
74100;SDS011;62462;52.530;21.682;2023-06-22T04:59:00;29.92;;;25.85;;
74100;SDS011;62462;52.530;21.682;2023-06-22T05:01:28;24.55;;;21.95;;
74100;SDS011;62462;52.530;21.682;2023-06-22T05:03:55;25.90;;;23.10;;
74100;SDS011;62462;52.530;21.682;2023-06-22T05:06:24;25.27;;;22.45;;
74100;SDS011;62462;52.530;21.682;2023-06-22T05:08:53;31.90;;;28.23;;
74100;SDS011;62462;52.530;21.682;2023-06-22T05:11:26;28.15;;;25.15;;
74100;SDS011;62462;52.530;21.682;2023-06-22T05:13:52;26.77;;;23.88;;
74100;SDS011;62462;52.530;21.682;2023-06-22T05:16:18;32.78;;;25.73;;
74100;SDS011;62462;52.530;21.682;2023-06-22T05:18:52;33.20;;;27.63;;
74100;SDS011;62462;52.530;21.682;2023-06-22T05:21:22;31.30;;;27.15;;
74100;SDS011;62462;52.530;21.682;2023-06-22T05:23:50;37.90;;;32.00;;
74100;SDS011;62462;52.530;21.682;2023-06-22T05:26:16;35.13;;;30.25;;
74100;SDS011;62462;52.530;21.682;2023-06-22T05:28:42;35.28;;;28.85;;
74100;SDS011;62462;52.530;21.682;2023-06-22T05:31:11;34.30;;;28.92;;
74100;SDS011;62462;52.530;21.682;2023-06-22T05:33:38;29.40;;;25.38;;
74100;SDS011;62462;52.530;21.682;2023-06-22T05:36:04;34.47;;;28.20;;
74100;SDS011;62462;52.530;21.682;2023-06-22T05:38:30;33.40;;;27.55;;
74100;SDS011;62462;52.530;21.682;2023-06-22T05:40:56;37.22;;;31.08;;
74100;SDS011;62462;52.530;21.682;2023-06-22T05:43:22;35.45;;;30.52;;
74100;SDS011;62462;52.530;21.682;2023-06-22T05:45:47;35.28;;;29.58;;
74100;SDS011;62462;52.530;21.682;2023-06-22T05:48:13;32.03;;;27.13;;
74100;SDS011;62462;52.530;21.682;2023-06-22T05:50:39;36.25;;;28.33;;
74100;SDS011;62462;52.530;21.682;2023-06-22T05:53:04;30.92;;;26.48;;
74100;SDS011;62462;52.530;21.682;2023-06-22T05:55:32;32.30;;;28.30;;
74100;SDS011;62462;52.530;21.682;2023-06-22T05:57:57;34.72;;;29.23;;
74100;SDS011;62462;52.530;21.682;2023-06-22T06:00:23;31.27;;;27.88;;
74100;SDS011;62462;52.530;21.682;2023-06-22T06:02:49;33.28;;;28.40;;
74100;SDS011;62462;52.530;21.682;2023-06-22T06:05:15;31.92;;;27.08;;
74100;SDS011;62462;52.530;21.682;2023-06-22T06:07:44;33.90;;;28.10;;
74100;SDS011;62462;52.530;21.682;2023-06-22T06:10:11;32.38;;;27.38;;
74100;SDS011;62462;52.530;21.682;2023-06-22T06:12:37;37.45;;;29.10;;
74100;SDS011;62462;52.530;21.682;2023-06-22T06:15:03;34.08;;;28.95;;
74100;SDS011;62462;52.530;21.682;2023-06-22T06:17:29;36.78;;;30.17;;
74100;SDS011;62462;52.530;21.682;2023-06-22T06:19:55;34.55;;;26.92;;
74100;SDS011;62462;52.530;21.682;2023-06-22T06:22:21;31.77;;;27.02;;
74100;SDS011;62462;52.530;21.682;2023-06-22T06:24:48;37.08;;;29.65;;
74100;SDS011;62462;52.530;21.682;2023-06-22T06:27:14;30.67;;;26.83;;
74100;SDS011;62462;52.530;21.682;2023-06-22T06:29:43;34.83;;;30.15;;
74100;SDS011;62462;52.530;21.682;2023-06-22T06:32:10;34.45;;;29.45;;
74100;SDS011;62462;52.530;21.682;2023-06-22T06:34:37;32.60;;;27.77;;
74100;SDS011;62462;52.530;21.682;2023-06-22T06:37:03;30.50;;;25.40;;
74100;SDS011;62462;52.530;21.682;2023-06-22T06:39:28;39.00;;;29.70;;
74100;SDS011;62462;52.530;21.682;2023-06-22T06:41:54;40.55;;;28.90;;
74100;SDS011;62462;52.530;21.682;2023-06-22T06:44:20;31.85;;;27.50;;
74100;SDS011;62462;52.530;21.682;2023-06-22T06:46:46;29.00;;;23.85;;
74100;SDS011;62462;52.530;21.682;2023-06-22T06:49:12;33.60;;;26.65;;
74100;SDS011;62462;52.530;21.682;2023-06-22T06:51:38;36.10;;;26.48;;
74100;SDS011;62462;52.530;21.682;2023-06-22T06:54:04;31.90;;;25.70;;
74100;SDS011;62462;52.530;21.682;2023-06-22T06:56:29;33.03;;;26.85;;
74100;SDS011;62462;52.530;21.682;2023-06-22T06:58:57;31.13;;;25.92;;
74100;SDS011;62462;52.530;21.682;2023-06-22T07:01:23;36.22;;;26.98;;
74100;SDS011;62462;52.530;21.682;2023-06-22T07:03:49;31.85;;;26.50;;
74100;SDS011;62462;52.530;21.682;2023-06-22T07:06:15;32.53;;;27.35;;
74100;SDS011;62462;52.530;21.682;2023-06-22T07:08:41;32.67;;;26.67;;
74100;SDS011;62462;52.530;21.682;2023-06-22T07:11:07;33.03;;;26.08;;
74100;SDS011;62462;52.530;21.682;2023-06-22T07:13:33;26.38;;;23.50;;
74100;SDS011;62462;52.530;21.682;2023-06-22T07:15:59;32.15;;;24.48;;
74100;SDS011;62462;52.530;21.682;2023-06-22T07:18:26;29.73;;;24.27;;
74100;SDS011;62462;52.530;21.682;2023-06-22T07:20:52;30.08;;;22.90;;
74100;SDS011;62462;52.530;21.682;2023-06-22T07:23:18;27.60;;;23.48;;
74100;SDS011;62462;52.530;21.682;2023-06-22T07:25:43;27.17;;;22.02;;
74100;SDS011;62462;52.530;21.682;2023-06-22T07:28:09;24.45;;;21.20;;
74100;SDS011;62462;52.530;21.682;2023-06-22T07:30:36;22.20;;;19.80;;
74100;SDS011;62462;52.530;21.682;2023-06-22T07:33:03;26.33;;;22.20;;
74100;SDS011;62462;52.530;21.682;2023-06-22T07:35:31;22.35;;;19.98;;
74100;SDS011;62462;52.530;21.682;2023-06-22T07:37:56;27.15;;;20.27;;
74100;SDS011;62462;52.530;21.682;2023-06-22T07:40:22;25.02;;;20.85;;
74100;SDS011;62462;52.530;21.682;2023-06-22T07:42:48;28.30;;;20.30;;
74100;SDS011;62462;52.530;21.682;2023-06-22T07:45:16;22.42;;;18.85;;
74100;SDS011;62462;52.530;21.682;2023-06-22T07:47:42;23.13;;;18.10;;
74100;SDS011;62462;52.530;21.682;2023-06-22T07:50:08;21.63;;;17.08;;
74100;SDS011;62462;52.530;21.682;2023-06-22T07:52:34;21.65;;;17.80;;
74100;SDS011;62462;52.530;21.682;2023-06-22T07:55:00;20.90;;;16.50;;
74100;SDS011;62462;52.530;21.682;2023-06-22T07:57:27;22.45;;;18.50;;
74100;SDS011;62462;52.530;21.682;2023-06-22T07:59:58;21.73;;;17.10;;
74100;SDS011;62462;52.530;21.682;2023-06-22T08:02:47;21.13;;;18.23;;
74100;SDS011;62462;52.530;21.682;2023-06-22T08:05:13;19.33;;;17.02;;
74100;SDS011;62462;52.530;21.682;2023-06-22T08:07:40;23.30;;;17.35;;
74100;SDS011;62462;52.530;21.682;2023-06-22T08:10:06;22.50;;;18.08;;
74100;SDS011;62462;52.530;21.682;2023-06-22T08:12:35;21.70;;;16.55;;
74100;SDS011;62462;52.530;21.682;2023-06-22T08:15:00;21.17;;;18.85;;
74100;SDS011;62462;52.530;21.682;2023-06-22T08:17:26;22.45;;;18.15;;
74100;SDS011;62462;52.530;21.682;2023-06-22T08:19:52;19.00;;;17.00;;
74100;SDS011;62462;52.530;21.682;2023-06-22T08:22:17;20.73;;;16.67;;
74100;SDS011;62462;52.530;21.682;2023-06-22T08:24:44;25.50;;;19.90;;
74100;SDS011;62462;52.530;21.682;2023-06-22T08:27:10;21.13;;;17.55;;
74100;SDS011;62462;52.530;21.682;2023-06-22T08:29:39;19.80;;;16.88;;
74100;SDS011;62462;52.530;21.682;2023-06-22T08:32:08;21.13;;;17.38;;
74100;SDS011;62462;52.530;21.682;2023-06-22T08:34:34;21.33;;;17.80;;
74100;SDS011;62462;52.530;21.682;2023-06-22T08:37:01;20.90;;;18.48;;
74100;SDS011;62462;52.530;21.682;2023-06-22T08:39:31;21.48;;;16.85;;
74100;SDS011;62462;52.530;21.682;2023-06-22T08:41:58;20.65;;;17.17;;
74100;SDS011;62462;52.530;21.682;2023-06-22T08:44:23;17.52;;;15.10;;
74100;SDS011;62462;52.530;21.682;2023-06-22T08:46:49;17.73;;;15.50;;
74100;SDS011;62462;52.530;21.682;2023-06-22T08:49:15;15.18;;;13.57;;
74100;SDS011;62462;52.530;21.682;2023-06-22T08:51:40;14.70;;;12.93;;
74100;SDS011;62462;52.530;21.682;2023-06-22T08:54:06;18.52;;;14.45;;
74100;SDS011;62462;52.530;21.682;2023-06-22T08:56:32;14.68;;;11.48;;
74100;SDS011;62462;52.530;21.682;2023-06-22T08:58:57;13.68;;;11.75;;
74100;SDS011;62462;52.530;21.682;2023-06-22T09:01:23;15.02;;;12.30;;
74100;SDS011;62462;52.530;21.682;2023-06-22T09:03:49;15.00;;;12.50;;
74100;SDS011;62462;52.530;21.682;2023-06-22T09:06:20;11.60;;;10.40;;
74100;SDS011;62462;52.530;21.682;2023-06-22T09:08:46;15.00;;;11.85;;
74100;SDS011;62462;52.530;21.682;2023-06-22T09:11:12;11.98;;;10.68;;
74100;SDS011;62462;52.530;21.682;2023-06-22T09:13:38;13.60;;;10.68;;
74100;SDS011;62462;52.530;21.682;2023-06-22T09:16:04;11.10;;;9.38;;
74100;SDS011;62462;52.530;21.682;2023-06-22T09:18:30;13.00;;;9.45;;
74100;SDS011;62462;52.530;21.682;2023-06-22T09:20:55;8.55;;;7.55;;
74100;SDS011;62462;52.530;21.682;2023-06-22T09:23:21;13.30;;;9.05;;
74100;SDS011;62462;52.530;21.682;2023-06-22T09:25:47;8.85;;;7.30;;
74100;SDS011;62462;52.530;21.682;2023-06-22T09:28:13;9.38;;;7.13;;
74100;SDS011;62462;52.530;21.682;2023-06-22T09:30:39;7.70;;;7.00;;
74100;SDS011;62462;52.530;21.682;2023-06-22T09:33:05;9.13;;;6.70;;
74100;SDS011;62462;52.530;21.682;2023-06-22T09:35:31;6.65;;;6.03;;
74100;SDS011;62462;52.530;21.682;2023-06-22T09:37:57;12.55;;;6.65;;
74100;SDS011;62462;52.530;21.682;2023-06-22T09:40:22;7.90;;;6.25;;
74100;SDS011;62462;52.530;21.682;2023-06-22T09:42:48;7.10;;;5.80;;
74100;SDS011;62462;52.530;21.682;2023-06-22T09:45:14;7.65;;;5.45;;
74100;SDS011;62462;52.530;21.682;2023-06-22T09:47:40;7.28;;;5.45;;
74100;SDS011;62462;52.530;21.682;2023-06-22T09:50:06;6.75;;;5.40;;
74100;SDS011;62462;52.530;21.682;2023-06-22T09:52:32;5.15;;;4.60;;
74100;SDS011;62462;52.530;21.682;2023-06-22T09:54:58;6.78;;;4.60;;
74100;SDS011;62462;52.530;21.682;2023-06-22T09:57:24;5.13;;;4.30;;
74100;SDS011;62462;52.530;21.682;2023-06-22T09:59:49;4.65;;;3.90;;
74100;SDS011;62462;52.530;21.682;2023-06-22T10:02:15;10.30;;;4.47;;
74100;SDS011;62462;52.530;21.682;2023-06-22T10:04:42;7.78;;;4.25;;
74100;SDS011;62462;52.530;21.682;2023-06-22T10:07:07;6.50;;;4.15;;
74100;SDS011;62462;52.530;21.682;2023-06-22T10:09:34;5.18;;;3.65;;
74100;SDS011;62462;52.530;21.682;2023-06-22T10:12:00;8.25;;;4.53;;
74100;SDS011;62462;52.530;21.682;2023-06-22T10:14:26;4.63;;;3.55;;
74100;SDS011;62462;52.530;21.682;2023-06-22T10:16:54;7.53;;;4.13;;
74100;SDS011;62462;52.530;21.682;2023-06-22T10:19:20;5.68;;;3.50;;
74100;SDS011;62462;52.530;21.682;2023-06-22T10:21:46;6.93;;;3.85;;
74100;SDS011;62462;52.530;21.682;2023-06-22T10:24:11;3.80;;;3.42;;
74100;SDS011;62462;52.530;21.682;2023-06-22T10:26:37;5.25;;;3.85;;
74100;SDS011;62462;52.530;21.682;2023-06-22T10:29:03;4.30;;;3.40;;
74100;SDS011;62462;52.530;21.682;2023-06-22T10:31:29;5.80;;;3.40;;
74100;SDS011;62462;52.530;21.682;2023-06-22T10:33:54;3.67;;;3.20;;
74100;SDS011;62462;52.530;21.682;2023-06-22T10:36:21;8.95;;;3.40;;
74100;SDS011;62462;52.530;21.682;2023-06-22T10:38:47;5.30;;;3.95;;
74100;SDS011;62462;52.530;21.682;2023-06-22T10:41:13;4.32;;;3.80;;
74100;SDS011;62462;52.530;21.682;2023-06-22T10:43:40;3.90;;;3.25;;
74100;SDS011;62462;52.530;21.682;2023-06-22T10:46:06;3.85;;;3.38;;
74100;SDS011;62462;52.530;21.682;2023-06-22T10:48:32;4.70;;;3.80;;
74100;SDS011;62462;52.530;21.682;2023-06-22T10:50:57;7.18;;;3.47;;
74100;SDS011;62462;52.530;21.682;2023-06-22T10:53:23;4.85;;;3.20;;
74100;SDS011;62462;52.530;21.682;2023-06-22T10:55:49;4.00;;;3.20;;
74100;SDS011;62462;52.530;21.682;2023-06-22T10:58:17;3.80;;;3.50;;
74100;SDS011;62462;52.530;21.682;2023-06-22T11:00:44;5.97;;;3.08;;
74100;SDS011;62462;52.530;21.682;2023-06-22T11:03:10;11.02;;;3.40;;
74100;SDS011;62462;52.530;21.682;2023-06-22T11:05:35;5.75;;;3.78;;
74100;SDS011;62462;52.530;21.682;2023-06-22T11:08:01;10.35;;;4.03;;
74100;SDS011;62462;52.530;21.682;2023-06-22T11:10:27;5.32;;;3.88;;
74100;SDS011;62462;52.530;21.682;2023-06-22T11:12:53;4.38;;;3.65;;
74100;SDS011;62462;52.530;21.682;2023-06-22T11:15:20;4.47;;;3.25;;
74100;SDS011;62462;52.530;21.682;2023-06-22T11:17:46;5.43;;;3.78;;
74100;SDS011;62462;52.530;21.682;2023-06-22T11:20:11;4.15;;;3.38;;
74100;SDS011;62462;52.530;21.682;2023-06-22T11:22:38;3.47;;;2.90;;
74100;SDS011;62462;52.530;21.682;2023-06-22T11:25:05;5.15;;;3.80;;
74100;SDS011;62462;52.530;21.682;2023-06-22T11:27:32;8.15;;;3.20;;
74100;SDS011;62462;52.530;21.682;2023-06-22T11:29:57;5.47;;;3.15;;
74100;SDS011;62462;52.530;21.682;2023-06-22T11:32:23;5.13;;;3.17;;
74100;SDS011;62462;52.530;21.682;2023-06-22T11:34:49;3.72;;;3.17;;
74100;SDS011;62462;52.530;21.682;2023-06-22T11:37:15;4.85;;;2.85;;
74100;SDS011;62462;52.530;21.682;2023-06-22T11:39:41;4.63;;;3.30;;
74100;SDS011;62462;52.530;21.682;2023-06-22T11:42:08;5.32;;;3.25;;
74100;SDS011;62462;52.530;21.682;2023-06-22T11:44:34;4.07;;;2.85;;
74100;SDS011;62462;52.530;21.682;2023-06-22T11:47:00;3.05;;;2.70;;
74100;SDS011;62462;52.530;21.682;2023-06-22T11:49:28;4.60;;;2.83;;
74100;SDS011;62462;52.530;21.682;2023-06-22T11:51:57;4.00;;;2.72;;
74100;SDS011;62462;52.530;21.682;2023-06-22T11:54:23;9.80;;;3.08;;
74100;SDS011;62462;52.530;21.682;2023-06-22T11:56:48;4.65;;;3.05;;
74100;SDS011;62462;52.530;21.682;2023-06-22T11:59:14;3.50;;;2.65;;
74100;SDS011;62462;52.530;21.682;2023-06-22T12:01:40;6.93;;;2.75;;
74100;SDS011;62462;52.530;21.682;2023-06-22T12:04:05;4.40;;;2.75;;
74100;SDS011;62462;52.530;21.682;2023-06-22T12:06:32;3.13;;;2.80;;
74100;SDS011;62462;52.530;21.682;2023-06-22T12:08:58;5.75;;;3.50;;
74100;SDS011;62462;52.530;21.682;2023-06-22T12:11:24;5.03;;;2.92;;
74100;SDS011;62462;52.530;21.682;2023-06-22T12:13:50;4.38;;;2.80;;
74100;SDS011;62462;52.530;21.682;2023-06-22T12:16:15;3.90;;;2.97;;
74100;SDS011;62462;52.530;21.682;2023-06-22T12:18:41;3.55;;;2.80;;
74100;SDS011;62462;52.530;21.682;2023-06-22T12:21:07;4.38;;;2.70;;
74100;SDS011;62462;52.530;21.682;2023-06-22T12:23:33;3.92;;;2.80;;
74100;SDS011;62462;52.530;21.682;2023-06-22T12:25:58;4.38;;;3.20;;
74100;SDS011;62462;52.530;21.682;2023-06-22T12:28:26;8.75;;;3.20;;
74100;SDS011;62462;52.530;21.682;2023-06-22T12:30:52;3.97;;;3.35;;
74100;SDS011;62462;52.530;21.682;2023-06-22T12:33:17;6.97;;;3.95;;
74100;SDS011;62462;52.530;21.682;2023-06-22T12:35:43;4.78;;;3.55;;
74100;SDS011;62462;52.530;21.682;2023-06-22T12:38:10;5.30;;;3.50;;
74100;SDS011;62462;52.530;21.682;2023-06-22T12:40:36;4.13;;;3.75;;
74100;SDS011;62462;52.530;21.682;2023-06-22T12:43:02;4.03;;;3.25;;
74100;SDS011;62462;52.530;21.682;2023-06-22T12:45:27;4.00;;;3.60;;
74100;SDS011;62462;52.530;21.682;2023-06-22T12:47:56;5.72;;;3.60;;
74100;SDS011;62462;52.530;21.682;2023-06-22T12:50:22;4.38;;;3.42;;
74100;SDS011;62462;52.530;21.682;2023-06-22T12:52:48;3.65;;;3.35;;
74100;SDS011;62462;52.530;21.682;2023-06-22T12:55:14;19.40;;;5.97;;
74100;SDS011;62462;52.530;21.682;2023-06-22T12:57:39;32.30;;;8.48;;
74100;SDS011;62462;52.530;21.682;2023-06-22T13:00:05;10.50;;;4.53;;
74100;SDS011;62462;52.530;21.682;2023-06-22T13:02:33;4.68;;;3.38;;
74100;SDS011;62462;52.530;21.682;2023-06-22T13:05:00;7.47;;;3.35;;
74100;SDS011;62462;52.530;21.682;2023-06-22T13:07:26;6.18;;;3.95;;
74100;SDS011;62462;52.530;21.682;2023-06-22T13:09:52;3.83;;;3.25;;
74100;SDS011;62462;52.530;21.682;2023-06-22T13:12:18;50.33;;;13.70;;
74100;SDS011;62462;52.530;21.682;2023-06-22T13:14:45;10.60;;;5.05;;
74100;SDS011;62462;52.530;21.682;2023-06-22T13:17:12;4.28;;;3.50;;
74100;SDS011;62462;52.530;21.682;2023-06-22T13:19:39;5.45;;;3.33;;
74100;SDS011;62462;52.530;21.682;2023-06-22T13:22:05;4.63;;;3.30;;
74100;SDS011;62462;52.530;21.682;2023-06-22T13:24:50;5.80;;;3.50;;
74100;SDS011;62462;52.530;21.682;2023-06-22T13:27:15;5.93;;;3.85;;
74100;SDS011;62462;52.530;21.682;2023-06-22T13:29:41;7.25;;;3.80;;
74100;SDS011;62462;52.530;21.682;2023-06-22T13:32:07;3.70;;;3.40;;
74100;SDS011;62462;52.530;21.682;2023-06-22T13:34:33;3.80;;;3.45;;
74100;SDS011;62462;52.530;21.682;2023-06-22T13:36:59;4.70;;;4.10;;
74100;SDS011;62462;52.530;21.682;2023-06-22T13:39:24;6.85;;;4.25;;
74100;SDS011;62462;52.530;21.682;2023-06-22T13:41:50;6.40;;;4.13;;
74100;SDS011;62462;52.530;21.682;2023-06-22T13:44:16;6.90;;;4.30;;
74100;SDS011;62462;52.530;21.682;2023-06-22T13:46:42;6.00;;;3.60;;
74100;SDS011;62462;52.530;21.682;2023-06-22T13:49:07;6.60;;;3.70;;
74100;SDS011;62462;52.530;21.682;2023-06-22T13:51:33;10.15;;;3.85;;
74100;SDS011;62462;52.530;21.682;2023-06-22T13:53:59;4.05;;;3.65;;
74100;SDS011;62462;52.530;21.682;2023-06-22T13:56:24;4.57;;;4.03;;
74100;SDS011;62462;52.530;21.682;2023-06-22T13:58:50;4.75;;;4.22;;
74100;SDS011;62462;52.530;21.682;2023-06-22T14:01:16;6.07;;;3.72;;
74100;SDS011;62462;52.530;21.682;2023-06-22T14:03:42;6.82;;;3.90;;
74100;SDS011;62462;52.530;21.682;2023-06-22T14:06:10;5.32;;;3.78;;
74100;SDS011;62462;52.530;21.682;2023-06-22T14:08:37;4.32;;;3.60;;
74100;SDS011;62462;52.530;21.682;2023-06-22T14:11:02;7.10;;;3.63;;
74100;SDS011;62462;52.530;21.682;2023-06-22T14:13:28;5.18;;;4.05;;
74100;SDS011;62462;52.530;21.682;2023-06-22T14:15:54;5.93;;;3.90;;
74100;SDS011;62462;52.530;21.682;2023-06-22T14:18:20;4.07;;;3.67;;
74100;SDS011;62462;52.530;21.682;2023-06-22T14:20:47;3.70;;;3.40;;
74100;SDS011;62462;52.530;21.682;2023-06-22T14:23:13;5.32;;;3.60;;
74100;SDS011;62462;52.530;21.682;2023-06-22T14:25:39;5.40;;;3.60;;